sensor_id;sensor_type;location;lat;lon;timestamp;temperature;humidity
21627;DHT22;10975;47.872;12.972;2023-10-09T00:00:11;13.80;99.90
21627;DHT22;10975;47.872;12.972;2023-10-09T00:02:57;13.70;99.90
21627;DHT22;10975;47.872;12.972;2023-10-09T00:05:28;13.70;99.90
21627;DHT22;10975;47.872;12.972;2023-10-09T00:08:06;13.70;99.90
21627;DHT22;10975;47.872;12.972;2023-10-09T00:10:36;13.70;99.90
21627;DHT22;10975;47.872;12.972;2023-10-09T00:13:15;13.70;99.90
21627;DHT22;10975;47.872;12.972;2023-10-09T00:15:42;13.70;99.90
21627;DHT22;10975;47.872;12.972;2023-10-09T00:18:09;13.70;99.90
21627;DHT22;10975;47.872;12.972;2023-10-09T00:20:39;13.70;99.90
21627;DHT22;10975;47.872;12.972;2023-10-09T00:23:09;13.70;99.90
21627;DHT22;10975;47.872;12.972;2023-10-09T00:25:49;13.70;99.90
21627;DHT22;10975;47.872;12.972;2023-10-09T00:28:31;13.70;99.90
21627;DHT22;10975;47.872;12.972;2023-10-09T00:30:58;13.70;99.90
21627;DHT22;10975;47.872;12.972;2023-10-09T00:33:25;13.70;99.90
21627;DHT22;10975;47.872;12.972;2023-10-09T00:35:52;13.60;99.90
21627;DHT22;10975;47.872;12.972;2023-10-09T00:38:22;13.60;99.90
21627;DHT22;10975;47.872;12.972;2023-10-09T00:40:49;13.60;99.90
21627;DHT22;10975;47.872;12.972;2023-10-09T00:43:24;13.60;99.90
21627;DHT22;10975;47.872;12.972;2023-10-09T00:45:59;13.60;99.90
21627;DHT22;10975;47.872;12.972;2023-10-09T00:48:30;13.60;99.90
21627;DHT22;10975;47.872;12.972;2023-10-09T00:50:57;13.60;99.90
21627;DHT22;10975;47.872;12.972;2023-10-09T00:53:27;13.50;99.90
21627;DHT22;10975;47.872;12.972;2023-10-09T00:55:58;13.50;99.90
21627;DHT22;10975;47.872;12.972;2023-10-09T00:58:30;13.40;99.90
21627;DHT22;10975;47.872;12.972;2023-10-09T01:01:02;13.40;99.90
21627;DHT22;10975;47.872;12.972;2023-10-09T01:03:31;13.30;99.90
21627;DHT22;10975;47.872;12.972;2023-10-09T01:06:01;13.30;99.90
21627;DHT22;10975;47.872;12.972;2023-10-09T01:08:43;13.20;99.90
21627;DHT22;10975;47.872;12.972;2023-10-09T01:11:13;13.20;99.90
21627;DHT22;10975;47.872;12.972;2023-10-09T01:13:48;13.20;99.90
21627;DHT22;10975;47.872;12.972;2023-10-09T01:16:15;13.20;99.90
21627;DHT22;10975;47.872;12.972;2023-10-09T01:18:43;13.10;99.90
21627;DHT22;10975;47.872;12.972;2023-10-09T01:21:11;13.10;99.90
21627;DHT22;10975;47.872;12.972;2023-10-09T01:23:40;13.10;99.90
21627;DHT22;10975;47.872;12.972;2023-10-09T01:26:18;13.00;99.90
21627;DHT22;10975;47.872;12.972;2023-10-09T01:28:45;13.00;99.90
21627;DHT22;10975;47.872;12.972;2023-10-09T01:31:12;13.00;99.90
21627;DHT22;10975;47.872;12.972;2023-10-09T01:33:39;13.00;99.90
21627;DHT22;10975;47.872;12.972;2023-10-09T01:36:06;13.10;99.90
21627;DHT22;10975;47.872;12.972;2023-10-09T01:38:33;13.10;99.90
21627;DHT22;10975;47.872;12.972;2023-10-09T01:41:10;13.10;99.90
21627;DHT22;10975;47.872;12.972;2023-10-09T01:43:42;13.10;99.90
21627;DHT22;10975;47.872;12.972;2023-10-09T01:46:11;13.10;99.90
21627;DHT22;10975;47.872;12.972;2023-10-09T01:48:38;13.00;99.90
21627;DHT22;10975;47.872;12.972;2023-10-09T01:51:14;13.00;99.90
21627;DHT22;10975;47.872;12.972;2023-10-09T01:53:44;13.00;99.90
21627;DHT22;10975;47.872;12.972;2023-10-09T01:56:11;13.10;99.90
21627;DHT22;10975;47.872;12.972;2023-10-09T01:58:44;13.00;99.90
21627;DHT22;10975;47.872;12.972;2023-10-09T02:01:13;12.90;99.90
21627;DHT22;10975;47.872;12.972;2023-10-09T02:03:41;12.90;99.90
21627;DHT22;10975;47.872;12.972;2023-10-09T02:06:10;12.80;99.90
21627;DHT22;10975;47.872;12.972;2023-10-09T02:08:53;12.80;99.90
21627;DHT22;10975;47.872;12.972;2023-10-09T02:11:20;12.90;99.90
21627;DHT22;10975;47.872;12.972;2023-10-09T02:14:03;12.90;99.90
21627;DHT22;10975;47.872;12.972;2023-10-09T02:16:32;13.00;99.90
21627;DHT22;10975;47.872;12.972;2023-10-09T02:19:08;13.00;99.90
21627;DHT22;10975;47.872;12.972;2023-10-09T02:21:55;13.00;99.90
21627;DHT22;10975;47.872;12.972;2023-10-09T02:24:24;12.90;99.90
21627;DHT22;10975;47.872;12.972;2023-10-09T02:27:08;12.90;99.90
21627;DHT22;10975;47.872;12.972;2023-10-09T02:29:35;12.90;99.90
21627;DHT22;10975;47.872;12.972;2023-10-09T02:32:05;13.00;99.90
21627;DHT22;10975;47.872;12.972;2023-10-09T02:34:40;12.90;99.90
21627;DHT22;10975;47.872;12.972;2023-10-09T02:37:07;12.90;99.90
21627;DHT22;10975;47.872;12.972;2023-10-09T02:39:39;12.90;99.90
21627;DHT22;10975;47.872;12.972;2023-10-09T02:42:14;12.80;99.90
21627;DHT22;10975;47.872;12.972;2023-10-09T02:44:41;12.80;99.90
21627;DHT22;10975;47.872;12.972;2023-10-09T02:47:19;12.80;99.90
21627;DHT22;10975;47.872;12.972;2023-10-09T02:49:57;12.70;99.90
21627;DHT22;10975;47.872;12.972;2023-10-09T02:52:35;12.70;99.90
21627;DHT22;10975;47.872;12.972;2023-10-09T02:55:07;12.60;99.90
21627;DHT22;10975;47.872;12.972;2023-10-09T02:57:49;12.60;99.90
21627;DHT22;10975;47.872;12.972;2023-10-09T03:00:18;12.60;99.90
21627;DHT22;10975;47.872;12.972;2023-10-09T03:02:46;12.60;99.90
21627;DHT22;10975;47.872;12.972;2023-10-09T03:05:16;12.60;99.90
21627;DHT22;10975;47.872;12.972;2023-10-09T03:07:43;12.60;99.90
21627;DHT22;10975;47.872;12.972;2023-10-09T03:10:10;12.60;99.90
21627;DHT22;10975;47.872;12.972;2023-10-09T03:12:37;12.50;99.90
21627;DHT22;10975;47.872;12.972;2023-10-09T03:15:06;12.60;99.90
21627;DHT22;10975;47.872;12.972;2023-10-09T03:17:35;12.60;99.90
21627;DHT22;10975;47.872;12.972;2023-10-09T03:20:05;12.60;99.90
21627;DHT22;10975;47.872;12.972;2023-10-09T03:22:44;12.60;99.90
21627;DHT22;10975;47.872;12.972;2023-10-09T03:25:15;12.60;99.90
21627;DHT22;10975;47.872;12.972;2023-10-09T03:27:44;12.60;99.90
21627;DHT22;10975;47.872;12.972;2023-10-09T03:30:14;12.50;99.90
21627;DHT22;10975;47.872;12.972;2023-10-09T03:32:44;12.40;99.90
21627;DHT22;10975;47.872;12.972;2023-10-09T03:35:11;12.40;99.90
21627;DHT22;10975;47.872;12.972;2023-10-09T03:37:43;12.40;99.90
21627;DHT22;10975;47.872;12.972;2023-10-09T03:40:10;12.20;99.90
21627;DHT22;10975;47.872;12.972;2023-10-09T03:42:44;12.20;99.90
21627;DHT22;10975;47.872;12.972;2023-10-09T03:45:11;12.20;99.90
21627;DHT22;10975;47.872;12.972;2023-10-09T03:47:54;12.30;99.90
21627;DHT22;10975;47.872;12.972;2023-10-09T03:50:24;12.20;99.90
21627;DHT22;10975;47.872;12.972;2023-10-09T03:52:53;12.20;99.90
21627;DHT22;10975;47.872;12.972;2023-10-09T03:55:22;12.20;99.90
21627;DHT22;10975;47.872;12.972;2023-10-09T03:57:55;12.20;99.90
21627;DHT22;10975;47.872;12.972;2023-10-09T04:00:24;12.20;99.90
21627;DHT22;10975;47.872;12.972;2023-10-09T04:02:55;12.30;99.90
21627;DHT22;10975;47.872;12.972;2023-10-09T04:05:24;12.30;99.90
21627;DHT22;10975;47.872;12.972;2023-10-09T04:07:51;12.30;99.90
21627;DHT22;10975;47.872;12.972;2023-10-09T04:10:20;12.30;99.90
21627;DHT22;10975;47.872;12.972;2023-10-09T04:12:59;12.20;99.90
21627;DHT22;10975;47.872;12.972;2023-10-09T04:15:27;12.20;99.90
21627;DHT22;10975;47.872;12.972;2023-10-09T04:17:57;12.10;99.90
21627;DHT22;10975;47.872;12.972;2023-10-09T04:20:24;12.10;99.90
21627;DHT22;10975;47.872;12.972;2023-10-09T04:22:50;12.10;99.90
21627;DHT22;10975;47.872;12.972;2023-10-09T04:25:18;12.00;99.90
21627;DHT22;10975;47.872;12.972;2023-10-09T04:28:11;11.90;99.90
21627;DHT22;10975;47.872;12.972;2023-10-09T04:30:41;11.90;99.90
21627;DHT22;10975;47.872;12.972;2023-10-09T04:33:13;11.90;99.90
21627;DHT22;10975;47.872;12.972;2023-10-09T04:36:02;11.90;99.90
21627;DHT22;10975;47.872;12.972;2023-10-09T04:38:58;11.90;99.90
21627;DHT22;10975;47.872;12.972;2023-10-09T04:41:31;11.90;99.90
21627;DHT22;10975;47.872;12.972;2023-10-09T04:44:20;11.90;99.90
21627;DHT22;10975;47.872;12.972;2023-10-09T04:46:51;11.90;99.90
21627;DHT22;10975;47.872;12.972;2023-10-09T04:49:40;11.80;99.90
21627;DHT22;10975;47.872;12.972;2023-10-09T04:52:28;11.80;99.90
21627;DHT22;10975;47.872;12.972;2023-10-09T04:54:58;11.80;99.90
21627;DHT22;10975;47.872;12.972;2023-10-09T05:00:27;11.80;99.90
21627;DHT22;10975;47.872;12.972;2023-10-09T05:02:58;11.90;99.90
21627;DHT22;10975;47.872;12.972;2023-10-09T05:05:31;11.90;99.90
21627;DHT22;10975;47.872;12.972;2023-10-09T05:08:07;11.90;99.90
21627;DHT22;10975;47.872;12.972;2023-10-09T05:10:48;11.70;99.90
21627;DHT22;10975;47.872;12.972;2023-10-09T05:16:08;11.70;99.90
21627;DHT22;10975;47.872;12.972;2023-10-09T05:18:45;11.70;99.90
21627;DHT22;10975;47.872;12.972;2023-10-09T05:21:23;11.60;99.90
21627;DHT22;10975;47.872;12.972;2023-10-09T05:24:11;11.60;99.90
21627;DHT22;10975;47.872;12.972;2023-10-09T05:29:31;11.70;99.90
21627;DHT22;10975;47.872;12.972;2023-10-09T05:32:02;11.70;99.90
21627;DHT22;10975;47.872;12.972;2023-10-09T05:34:35;11.80;99.90
21627;DHT22;10975;47.872;12.972;2023-10-09T05:37:21;11.80;99.90
21627;DHT22;10975;47.872;12.972;2023-10-09T05:40:02;11.90;99.90
21627;DHT22;10975;47.872;12.972;2023-10-09T05:42:33;11.90;99.90
21627;DHT22;10975;47.872;12.972;2023-10-09T05:45:11;11.90;99.90
21627;DHT22;10975;47.872;12.972;2023-10-09T05:47:46;11.90;99.90
21627;DHT22;10975;47.872;12.972;2023-10-09T05:50:32;11.90;99.90
21627;DHT22;10975;47.872;12.972;2023-10-09T05:52:58;11.90;99.90
21627;DHT22;10975;47.872;12.972;2023-10-09T05:55:29;12.00;99.90
21627;DHT22;10975;47.872;12.972;2023-10-09T05:58:14;12.10;99.90
21627;DHT22;10975;47.872;12.972;2023-10-09T06:00:59;12.10;99.90
21627;DHT22;10975;47.872;12.972;2023-10-09T06:03:52;12.20;99.90
21627;DHT22;10975;47.872;12.972;2023-10-09T06:06:22;12.30;99.90
21627;DHT22;10975;47.872;12.972;2023-10-09T06:09:10;12.40;99.90
21627;DHT22;10975;47.872;12.972;2023-10-09T06:11:57;12.50;99.90
21627;DHT22;10975;47.872;12.972;2023-10-09T06:14:44;12.60;99.90
21627;DHT22;10975;47.872;12.972;2023-10-09T06:17:24;12.70;99.90
21627;DHT22;10975;47.872;12.972;2023-10-09T06:19:51;12.70;99.90
21627;DHT22;10975;47.872;12.972;2023-10-09T06:22:25;12.80;99.90
21627;DHT22;10975;47.872;12.972;2023-10-09T06:25:11;12.90;99.90
21627;DHT22;10975;47.872;12.972;2023-10-09T06:27:39;12.90;99.90
21627;DHT22;10975;47.872;12.972;2023-10-09T06:30:09;13.00;99.90
21627;DHT22;10975;47.872;12.972;2023-10-09T06:32:44;13.10;99.90
21627;DHT22;10975;47.872;12.972;2023-10-09T06:35:24;13.20;99.90
21627;DHT22;10975;47.872;12.972;2023-10-09T06:37:57;13.30;99.90
21627;DHT22;10975;47.872;12.972;2023-10-09T06:40:28;13.30;99.90
21627;DHT22;10975;47.872;12.972;2023-10-09T06:43:03;13.30;99.90
21627;DHT22;10975;47.872;12.972;2023-10-09T06:45:36;13.40;99.90
21627;DHT22;10975;47.872;12.972;2023-10-09T06:48:12;13.40;99.90
21627;DHT22;10975;47.872;12.972;2023-10-09T06:51:01;13.40;99.90
21627;DHT22;10975;47.872;12.972;2023-10-09T06:53:42;13.50;99.90
21627;DHT22;10975;47.872;12.972;2023-10-09T06:58:57;13.60;99.90
21627;DHT22;10975;47.872;12.972;2023-10-09T07:01:24;13.70;99.90
21627;DHT22;10975;47.872;12.972;2023-10-09T07:03:56;13.70;99.90
21627;DHT22;10975;47.872;12.972;2023-10-09T07:06:42;13.80;99.90
21627;DHT22;10975;47.872;12.972;2023-10-09T07:09:08;13.90;99.90
21627;DHT22;10975;47.872;12.972;2023-10-09T07:11:35;13.80;99.90
21627;DHT22;10975;47.872;12.972;2023-10-09T07:14:09;13.90;99.90
21627;DHT22;10975;47.872;12.972;2023-10-09T07:16:55;14.10;99.90
21627;DHT22;10975;47.872;12.972;2023-10-09T07:19:27;14.20;99.90
21627;DHT22;10975;47.872;12.972;2023-10-09T07:22:03;14.40;99.90
21627;DHT22;10975;47.872;12.972;2023-10-09T07:24:30;14.50;99.90
21627;DHT22;10975;47.872;12.972;2023-10-09T07:27:16;14.60;99.90
21627;DHT22;10975;47.872;12.972;2023-10-09T07:29:44;14.70;99.90
21627;DHT22;10975;47.872;12.972;2023-10-09T07:32:17;14.70;99.90
21627;DHT22;10975;47.872;12.972;2023-10-09T07:34:48;14.80;99.90
21627;DHT22;10975;47.872;12.972;2023-10-09T07:37:35;14.90;99.90
21627;DHT22;10975;47.872;12.972;2023-10-09T07:40:04;15.00;99.90
21627;DHT22;10975;47.872;12.972;2023-10-09T07:42:34;15.10;99.90
21627;DHT22;10975;47.872;12.972;2023-10-09T07:45:07;15.20;99.90
21627;DHT22;10975;47.872;12.972;2023-10-09T07:47:46;15.30;99.90
21627;DHT22;10975;47.872;12.972;2023-10-09T07:50:28;15.50;99.90
21627;DHT22;10975;47.872;12.972;2023-10-09T07:53:08;15.60;99.90
21627;DHT22;10975;47.872;12.972;2023-10-09T07:55:53;15.70;99.90
21627;DHT22;10975;47.872;12.972;2023-10-09T07:58:33;15.80;99.90
21627;DHT22;10975;47.872;12.972;2023-10-09T08:01:12;15.90;99.90
21627;DHT22;10975;47.872;12.972;2023-10-09T08:03:43;15.90;99.90
21627;DHT22;10975;47.872;12.972;2023-10-09T08:06:16;16.10;99.90
21627;DHT22;10975;47.872;12.972;2023-10-09T08:09:01;16.20;99.90
21627;DHT22;10975;47.872;12.972;2023-10-09T08:11:49;16.30;99.90
21627;DHT22;10975;47.872;12.972;2023-10-09T08:14:34;16.50;99.90
21627;DHT22;10975;47.872;12.972;2023-10-09T08:17:01;16.40;99.90
21627;DHT22;10975;47.872;12.972;2023-10-09T08:19:46;16.50;99.90
21627;DHT22;10975;47.872;12.972;2023-10-09T08:22:23;16.50;99.90
21627;DHT22;10975;47.872;12.972;2023-10-09T08:24:50;16.50;99.90
21627;DHT22;10975;47.872;12.972;2023-10-09T08:27:24;16.60;99.90
21627;DHT22;10975;47.872;12.972;2023-10-09T08:29:58;16.80;99.90
21627;DHT22;10975;47.872;12.972;2023-10-09T08:32:46;16.90;99.90
21627;DHT22;10975;47.872;12.972;2023-10-09T08:35:32;17.00;99.90
21627;DHT22;10975;47.872;12.972;2023-10-09T08:38:15;17.20;99.90
21627;DHT22;10975;47.872;12.972;2023-10-09T08:40:50;17.20;99.90
21627;DHT22;10975;47.872;12.972;2023-10-09T08:43:21;17.40;99.90
21627;DHT22;10975;47.872;12.972;2023-10-09T08:48:15;17.60;99.90
21627;DHT22;10975;47.872;12.972;2023-10-09T08:50:43;17.80;99.90
21627;DHT22;10975;47.872;12.972;2023-10-09T08:53:11;17.90;99.90
21627;DHT22;10975;47.872;12.972;2023-10-09T08:55:38;18.00;99.90
21627;DHT22;10975;47.872;12.972;2023-10-09T08:58:06;18.10;99.90
21627;DHT22;10975;47.872;12.972;2023-10-09T09:00:47;18.10;99.90
21627;DHT22;10975;47.872;12.972;2023-10-09T09:03:17;18.10;99.90
21627;DHT22;10975;47.872;12.972;2023-10-09T09:05:47;18.00;99.90
21627;DHT22;10975;47.872;12.972;2023-10-09T09:08:25;18.00;99.90
21627;DHT22;10975;47.872;12.972;2023-10-09T09:11:06;17.90;99.90
21627;DHT22;10975;47.872;12.972;2023-10-09T09:16:18;17.90;99.90
21627;DHT22;10975;47.872;12.972;2023-10-09T09:18:52;18.00;99.90
21627;DHT22;10975;47.872;12.972;2023-10-09T09:21:22;18.40;99.90
21627;DHT22;10975;47.872;12.972;2023-10-09T09:23:56;18.70;99.90
21627;DHT22;10975;47.872;12.972;2023-10-09T09:26:34;18.80;99.90
21627;DHT22;10975;47.872;12.972;2023-10-09T09:29:04;18.80;99.90
21627;DHT22;10975;47.872;12.972;2023-10-09T09:31:33;18.80;99.90
21627;DHT22;10975;47.872;12.972;2023-10-09T09:34:05;18.90;99.90
21627;DHT22;10975;47.872;12.972;2023-10-09T09:36:50;18.90;99.90
21627;DHT22;10975;47.872;12.972;2023-10-09T09:39:27;18.90;99.90
21627;DHT22;10975;47.872;12.972;2023-10-09T09:42:14;19.20;99.90
21627;DHT22;10975;47.872;12.972;2023-10-09T09:44:43;19.50;99.90
21627;DHT22;10975;47.872;12.972;2023-10-09T09:47:14;19.70;99.90
21627;DHT22;10975;47.872;12.972;2023-10-09T09:49:51;19.80;99.90
21627;DHT22;10975;47.872;12.972;2023-10-09T09:52:19;19.90;99.90
21627;DHT22;10975;47.872;12.972;2023-10-09T09:54:51;20.00;99.90
21627;DHT22;10975;47.872;12.972;2023-10-09T09:57:18;20.00;99.90
21627;DHT22;10975;47.872;12.972;2023-10-09T09:59:52;20.00;99.90
21627;DHT22;10975;47.872;12.972;2023-10-09T10:02:27;20.20;99.90
21627;DHT22;10975;47.872;12.972;2023-10-09T10:04:57;20.30;99.90
21627;DHT22;10975;47.872;12.972;2023-10-09T10:07:26;20.40;99.90
21627;DHT22;10975;47.872;12.972;2023-10-09T10:09:55;20.60;99.90
21627;DHT22;10975;47.872;12.972;2023-10-09T10:12:48;20.70;99.90
21627;DHT22;10975;47.872;12.972;2023-10-09T10:15:13;20.80;99.90
21627;DHT22;10975;47.872;12.972;2023-10-09T10:18:06;20.80;99.90
21627;DHT22;10975;47.872;12.972;2023-10-09T10:20:37;20.90;99.90
21627;DHT22;10975;47.872;12.972;2023-10-09T10:23:27;20.90;99.90
21627;DHT22;10975;47.872;12.972;2023-10-09T10:26:15;21.00;99.90
21627;DHT22;10975;47.872;12.972;2023-10-09T10:28:42;21.00;99.90
21627;DHT22;10975;47.872;12.972;2023-10-09T10:31:11;21.10;99.90
21627;DHT22;10975;47.872;12.972;2023-10-09T10:36:22;21.30;99.90
21627;DHT22;10975;47.872;12.972;2023-10-09T10:39:07;21.50;99.90
21627;DHT22;10975;47.872;12.972;2023-10-09T10:41:37;21.50;99.90
21627;DHT22;10975;47.872;12.972;2023-10-09T10:44:30;21.60;99.90
21627;DHT22;10975;47.872;12.972;2023-10-09T10:47:01;21.70;99.90
21627;DHT22;10975;47.872;12.972;2023-10-09T10:49:28;21.80;99.90
21627;DHT22;10975;47.872;12.972;2023-10-09T10:52:04;21.90;99.90
21627;DHT22;10975;47.872;12.972;2023-10-09T10:54:44;21.80;99.90
21627;DHT22;10975;47.872;12.972;2023-10-09T10:57:29;21.80;99.90
21627;DHT22;10975;47.872;12.972;2023-10-09T10:59:56;21.90;99.90
21627;DHT22;10975;47.872;12.972;2023-10-09T11:02:43;21.90;99.90
21627;DHT22;10975;47.872;12.972;2023-10-09T11:05:10;21.90;99.90
21627;DHT22;10975;47.872;12.972;2023-10-09T11:07:57;21.80;99.90
21627;DHT22;10975;47.872;12.972;2023-10-09T11:10:24;21.70;99.90
21627;DHT22;10975;47.872;12.972;2023-10-09T11:12:58;21.70;99.90
21627;DHT22;10975;47.872;12.972;2023-10-09T11:15:38;21.70;99.90
21627;DHT22;10975;47.872;12.972;2023-10-09T11:18:12;21.70;99.90
21627;DHT22;10975;47.872;12.972;2023-10-09T11:20:59;21.80;99.90
21627;DHT22;10975;47.872;12.972;2023-10-09T11:23:26;22.00;99.90
21627;DHT22;10975;47.872;12.972;2023-10-09T11:26:02;22.20;99.90
21627;DHT22;10975;47.872;12.972;2023-10-09T11:31:41;22.40;99.90
21627;DHT22;10975;47.872;12.972;2023-10-09T11:34:18;22.40;99.90
21627;DHT22;10975;47.872;12.972;2023-10-09T11:36:56;22.50;99.90
21627;DHT22;10975;47.872;12.972;2023-10-09T11:39:28;22.60;99.90
21627;DHT22;10975;47.872;12.972;2023-10-09T11:42:05;22.80;99.90
21627;DHT22;10975;47.872;12.972;2023-10-09T11:44:35;22.90;99.90
21627;DHT22;10975;47.872;12.972;2023-10-09T11:47:02;22.90;99.90
21627;DHT22;10975;47.872;12.972;2023-10-09T11:49:56;22.70;99.90
21627;DHT22;10975;47.872;12.972;2023-10-09T11:52:30;22.80;99.90
21627;DHT22;10975;47.872;12.972;2023-10-09T11:55:12;22.70;99.90
21627;DHT22;10975;47.872;12.972;2023-10-09T11:57:41;22.80;99.90
21627;DHT22;10975;47.872;12.972;2023-10-09T12:00:08;22.80;99.90
21627;DHT22;10975;47.872;12.972;2023-10-09T12:02:55;22.90;99.90
21627;DHT22;10975;47.872;12.972;2023-10-09T12:05:22;23.20;99.90
21627;DHT22;10975;47.872;12.972;2023-10-09T12:07:49;23.20;99.90
21627;DHT22;10975;47.872;12.972;2023-10-09T12:10:21;23.20;99.90
21627;DHT22;10975;47.872;12.972;2023-10-09T12:12:52;23.20;99.90
21627;DHT22;10975;47.872;12.972;2023-10-09T12:15:19;23.20;99.90
21627;DHT22;10975;47.872;12.972;2023-10-09T12:17:47;23.10;99.90
21627;DHT22;10975;47.872;12.972;2023-10-09T12:20:14;23.00;99.90
21627;DHT22;10975;47.872;12.972;2023-10-09T12:22:57;22.90;99.90
21627;DHT22;10975;47.872;12.972;2023-10-09T12:25:25;22.80;99.90
21627;DHT22;10975;47.872;12.972;2023-10-09T12:27:51;22.70;99.90
21627;DHT22;10975;47.872;12.972;2023-10-09T12:30:23;22.60;99.90
21627;DHT22;10975;47.872;12.972;2023-10-09T12:32:54;22.60;99.90
21627;DHT22;10975;47.872;12.972;2023-10-09T12:35:21;22.60;99.90
21627;DHT22;10975;47.872;12.972;2023-10-09T12:37:52;22.60;99.90
21627;DHT22;10975;47.872;12.972;2023-10-09T12:40:19;22.60;99.90
21627;DHT22;10975;47.872;12.972;2023-10-09T12:42:51;22.60;99.90
21627;DHT22;10975;47.872;12.972;2023-10-09T12:45:21;22.60;99.90
21627;DHT22;10975;47.872;12.972;2023-10-09T12:47:58;22.50;99.90
21627;DHT22;10975;47.872;12.972;2023-10-09T12:50:26;22.60;99.90
21627;DHT22;10975;47.872;12.972;2023-10-09T12:52:59;22.60;99.90
21627;DHT22;10975;47.872;12.972;2023-10-09T12:55:29;22.60;99.90
21627;DHT22;10975;47.872;12.972;2023-10-09T12:58:02;22.60;99.90
21627;DHT22;10975;47.872;12.972;2023-10-09T13:00:36;22.60;99.90
21627;DHT22;10975;47.872;12.972;2023-10-09T13:03:16;22.60;99.90
21627;DHT22;10975;47.872;12.972;2023-10-09T13:05:44;22.60;99.90
21627;DHT22;10975;47.872;12.972;2023-10-09T13:08:19;22.80;99.90
21627;DHT22;10975;47.872;12.972;2023-10-09T13:10:48;22.70;99.90
21627;DHT22;10975;47.872;12.972;2023-10-09T13:13:21;22.70;99.90
21627;DHT22;10975;47.872;12.972;2023-10-09T13:15:49;22.70;99.90
21627;DHT22;10975;47.872;12.972;2023-10-09T13:18:15;22.80;99.90
21627;DHT22;10975;47.872;12.972;2023-10-09T13:20:42;22.80;99.90
21627;DHT22;10975;47.872;12.972;2023-10-09T13:23:09;22.90;99.90
21627;DHT22;10975;47.872;12.972;2023-10-09T13:25:41;22.90;99.90
21627;DHT22;10975;47.872;12.972;2023-10-09T13:28:08;22.90;99.90
21627;DHT22;10975;47.872;12.972;2023-10-09T13:30:37;22.90;99.90
21627;DHT22;10975;47.872;12.972;2023-10-09T13:33:06;22.90;99.90
21627;DHT22;10975;47.872;12.972;2023-10-09T13:35:35;22.80;99.90
21627;DHT22;10975;47.872;12.972;2023-10-09T13:38:07;22.60;99.90
21627;DHT22;10975;47.872;12.972;2023-10-09T13:40:36;22.60;99.90
21627;DHT22;10975;47.872;12.972;2023-10-09T13:43:04;22.50;99.90
21627;DHT22;10975;47.872;12.972;2023-10-09T13:45:37;22.50;99.90
21627;DHT22;10975;47.872;12.972;2023-10-09T13:48:04;22.40;99.90
21627;DHT22;10975;47.872;12.972;2023-10-09T13:50:31;22.30;99.90
21627;DHT22;10975;47.872;12.972;2023-10-09T13:53:04;22.20;99.90
21627;DHT22;10975;47.872;12.972;2023-10-09T13:55:37;22.10;99.90
21627;DHT22;10975;47.872;12.972;2023-10-09T13:58:10;22.00;99.90
21627;DHT22;10975;47.872;12.972;2023-10-09T14:00:44;21.90;99.90
21627;DHT22;10975;47.872;12.972;2023-10-09T14:03:13;21.80;99.90
21627;DHT22;10975;47.872;12.972;2023-10-09T14:05:40;21.70;99.90
21627;DHT22;10975;47.872;12.972;2023-10-09T14:08:21;21.60;99.90
21627;DHT22;10975;47.872;12.972;2023-10-09T14:10:52;21.50;99.90
21627;DHT22;10975;47.872;12.972;2023-10-09T14:13:19;21.40;99.90
21627;DHT22;10975;47.872;12.972;2023-10-09T14:15:52;21.30;99.90
21627;DHT22;10975;47.872;12.972;2023-10-09T14:18:21;21.20;99.90
21627;DHT22;10975;47.872;12.972;2023-10-09T14:20:48;21.10;99.90
21627;DHT22;10975;47.872;12.972;2023-10-09T14:23:16;21.10;99.90
21627;DHT22;10975;47.872;12.972;2023-10-09T14:25:47;21.00;99.90
21627;DHT22;10975;47.872;12.972;2023-10-09T14:28:16;20.90;99.90
21627;DHT22;10975;47.872;12.972;2023-10-09T14:30:46;20.80;99.90
21627;DHT22;10975;47.872;12.972;2023-10-09T14:33:17;20.80;99.90
21627;DHT22;10975;47.872;12.972;2023-10-09T14:35:49;20.80;99.90
21627;DHT22;10975;47.872;12.972;2023-10-09T14:38:18;20.70;99.90
21627;DHT22;10975;47.872;12.972;2023-10-09T14:40:53;20.70;99.90
21627;DHT22;10975;47.872;12.972;2023-10-09T14:43:24;20.60;99.90
21627;DHT22;10975;47.872;12.972;2023-10-09T14:45:54;20.60;99.90
21627;DHT22;10975;47.872;12.972;2023-10-09T14:48:22;20.60;99.90
21627;DHT22;10975;47.872;12.972;2023-10-09T14:50:55;20.50;99.90
21627;DHT22;10975;47.872;12.972;2023-10-09T14:53:31;20.50;99.90
21627;DHT22;10975;47.872;12.972;2023-10-09T14:56:01;20.40;99.90
21627;DHT22;10975;47.872;12.972;2023-10-09T14:58:30;20.30;99.90
21627;DHT22;10975;47.872;12.972;2023-10-09T15:01:07;20.20;99.90
21627;DHT22;10975;47.872;12.972;2023-10-09T15:03:36;20.20;99.90
21627;DHT22;10975;47.872;12.972;2023-10-09T15:06:06;20.20;99.90
21627;DHT22;10975;47.872;12.972;2023-10-09T15:08:37;20.10;99.90
21627;DHT22;10975;47.872;12.972;2023-10-09T15:11:04;20.10;99.90
21627;DHT22;10975;47.872;12.972;2023-10-09T15:13:32;20.10;99.90
21627;DHT22;10975;47.872;12.972;2023-10-09T15:15:59;20.00;99.90
21627;DHT22;10975;47.872;12.972;2023-10-09T15:18:28;20.10;99.90
21627;DHT22;10975;47.872;12.972;2023-10-09T15:20:59;20.10;99.90
21627;DHT22;10975;47.872;12.972;2023-10-09T15:23:26;20.10;99.90
21627;DHT22;10975;47.872;12.972;2023-10-09T15:25:53;20.10;99.90
21627;DHT22;10975;47.872;12.972;2023-10-09T15:28:21;20.10;99.90
21627;DHT22;10975;47.872;12.972;2023-10-09T15:30:48;20.10;99.90
21627;DHT22;10975;47.872;12.972;2023-10-09T15:33:15;20.00;99.90
21627;DHT22;10975;47.872;12.972;2023-10-09T15:35:46;20.00;99.90
21627;DHT22;10975;47.872;12.972;2023-10-09T15:38:13;20.00;99.90
21627;DHT22;10975;47.872;12.972;2023-10-09T15:40:40;19.90;99.90
21627;DHT22;10975;47.872;12.972;2023-10-09T15:43:10;19.90;99.90
21627;DHT22;10975;47.872;12.972;2023-10-09T15:45:43;19.80;99.90
21627;DHT22;10975;47.872;12.972;2023-10-09T15:48:16;19.70;99.90
21627;DHT22;10975;47.872;12.972;2023-10-09T15:50:44;19.70;99.90
21627;DHT22;10975;47.872;12.972;2023-10-09T15:53:15;19.60;99.90
21627;DHT22;10975;47.872;12.972;2023-10-09T15:55:44;19.50;99.90
21627;DHT22;10975;47.872;12.972;2023-10-09T15:58:11;19.50;99.90
21627;DHT22;10975;47.872;12.972;2023-10-09T16:00:38;19.40;99.90
21627;DHT22;10975;47.872;12.972;2023-10-09T16:03:05;19.30;99.90
21627;DHT22;10975;47.872;12.972;2023-10-09T16:05:37;19.30;99.90
21627;DHT22;10975;47.872;12.972;2023-10-09T16:08:03;19.20;99.90
21627;DHT22;10975;47.872;12.972;2023-10-09T16:10:31;19.10;99.90
21627;DHT22;10975;47.872;12.972;2023-10-09T16:12:58;19.10;99.90